sensor_id;sensor_type;location;lat;lon;timestamp;pressure;altitude;pressure_sealevel;temperature;humidity
8758;BME280;4415;42.152;24.744;2023-07-13T00:02:58;99585.91;;;26.77;nan
8758;BME280;4415;42.152;24.744;2023-07-13T00:05:24;99582.69;;;26.75;nan
8758;BME280;4415;42.152;24.744;2023-07-13T00:15:12;99583.53;;;26.79;nan
8758;BME280;4415;42.152;24.744;2023-07-13T00:20:05;99572.41;;;26.65;nan
8758;BME280;4415;42.152;24.744;2023-07-13T00:22:30;99588.25;;;26.61;nan
8758;BME280;4415;42.152;24.744;2023-07-13T00:24:56;99612.41;;;26.61;nan
8758;BME280;4415;42.152;24.744;2023-07-13T00:29:47;99574.00;;;26.63;nan
8758;BME280;4415;42.152;24.744;2023-07-13T00:32:13;99576.34;;;26.64;nan
8758;BME280;4415;42.152;24.744;2023-07-13T00:34:38;99572.41;;;26.58;nan
8758;BME280;4415;42.152;24.744;2023-07-13T00:37:05;99595.75;;;26.54;nan
8758;BME280;4415;42.152;24.744;2023-07-13T00:39:32;99569.25;;;26.53;nan
8758;BME280;4415;42.152;24.744;2023-07-13T00:44:23;99541.91;;;26.40;nan
8758;BME280;4415;42.152;24.744;2023-07-13T00:46:49;99561.31;;;26.47;nan
8758;BME280;4415;42.152;24.744;2023-07-13T00:51:50;99539.94;;;26.34;nan
8758;BME280;4415;42.152;24.744;2023-07-13T00:54:36;99556.56;;;26.44;nan
8758;BME280;4415;42.152;24.744;2023-07-13T00:57:05;99561.31;;;26.47;nan
8758;BME280;4415;42.152;24.744;2023-07-13T01:01:56;99563.69;;;26.63;nan
8758;BME280;4415;42.152;24.744;2023-07-13T01:04:25;99545.47;;;26.62;nan
8758;BME280;4415;42.152;24.744;2023-07-13T01:06:51;99549.03;;;26.70;nan
8758;BME280;4415;42.152;24.744;2023-07-13T01:11:43;99537.56;;;26.68;nan
8758;BME280;4415;42.152;24.744;2023-07-13T01:14:10;99543.91;;;26.65;nan
8758;BME280;4415;42.152;24.744;2023-07-13T01:16:37;99552.59;;;26.67;nan
8758;BME280;4415;42.152;24.744;2023-07-13T01:19:10;99586.66;;;26.57;nan
8758;BME280;4415;42.152;24.744;2023-07-13T01:21:38;99550.22;;;26.55;nan
8758;BME280;4415;42.152;24.744;2023-07-13T01:24:08;99551.03;;;26.52;nan
8758;BME280;4415;42.152;24.744;2023-07-13T01:33:49;99550.22;;;26.16;nan
8758;BME280;4415;42.152;24.744;2023-07-13T01:41:06;99551.72;;;25.99;nan
8758;BME280;4415;42.152;24.744;2023-07-13T01:43:32;99558.81;;;25.97;nan
8758;BME280;4415;42.152;24.744;2023-07-13T01:53:13;99545.38;;;25.99;nan
8758;BME280;4415;42.152;24.744;2023-07-13T01:55:39;99548.53;;;26.01;nan
8758;BME280;4415;42.152;24.744;2023-07-13T01:58:05;99558.81;;;25.97;nan
8758;BME280;4415;42.152;24.744;2023-07-13T02:00:31;99551.66;;;25.85;nan
8758;BME280;4415;42.152;24.744;2023-07-13T02:05:23;99558.78;;;25.89;nan
8758;BME280;4415;42.152;24.744;2023-07-13T02:07:49;99564.31;;;25.89;nan
8758;BME280;4415;42.152;24.744;2023-07-13T02:10:15;99519.16;;;25.61;nan
8758;BME280;4415;42.152;24.744;2023-07-13T02:12:41;99572.22;;;25.87;nan
8758;BME280;4415;42.152;24.744;2023-07-13T02:15:08;99563.56;;;25.89;nan
8758;BME280;4415;42.152;24.744;2023-07-13T02:17:35;99573.06;;;25.92;nan
8758;BME280;4415;42.152;24.744;2023-07-13T02:20:02;99575.41;;;25.93;nan
8758;BME280;4415;42.152;24.744;2023-07-13T02:22:27;99564.31;;;25.89;nan
8758;BME280;4415;42.152;24.744;2023-07-13T02:24:53;99577.75;;;25.80;nan
8758;BME280;4415;42.152;24.744;2023-07-13T02:27:18;99586.38;;;25.65;nan
8758;BME280;4415;42.152;24.744;2023-07-13T02:32:09;99586.34;;;25.58;nan
8758;BME280;4415;42.152;24.744;2023-07-13T02:34:34;99565.63;;;25.30;nan
8758;BME280;4415;42.152;24.744;2023-07-13T02:39:25;99587.13;;;25.51;nan
8758;BME280;4415;42.152;24.744;2023-07-13T02:46:41;99580.81;;;25.54;nan
8758;BME280;4415;42.152;24.744;2023-07-13T02:56:26;99581.56;;;25.48;nan
8758;BME280;4415;42.152;24.744;2023-07-13T02:58:53;99591.09;;;25.61;nan
8758;BME280;4415;42.152;24.744;2023-07-13T03:01:19;99593.47;;;25.59;nan
8758;BME280;4415;42.152;24.744;2023-07-13T03:03:46;99584.00;;;25.60;nan
8758;BME280;4415;42.152;24.744;2023-07-13T03:06:12;99595.09;;;25.67;nan
8758;BME280;4415;42.152;24.744;2023-07-13T03:08:38;99579.25;;;25.57;nan
8758;BME280;4415;42.152;24.744;2023-07-13T03:11:06;99601.41;;;25.71;nan
8758;BME280;4415;42.152;24.744;2023-07-13T03:15:57;99606.00;;;25.39;nan
8758;BME280;4415;42.152;24.744;2023-07-13T03:18:23;99597.22;;;25.29;nan
8758;BME280;4415;42.152;24.744;2023-07-13T03:20:52;99512.69;;;25.32;nan
8758;BME280;4415;42.152;24.744;2023-07-13T03:23:18;99594.13;;;25.42;nan
8758;BME280;4415;42.152;24.744;2023-07-13T03:25:43;99570.47;;;25.48;nan
8758;BME280;4415;42.152;24.744;2023-07-13T03:28:10;99575.31;;;25.68;nan
8758;BME280;4415;42.152;24.744;2023-07-13T03:30:36;99570.66;;;25.83;nan
8758;BME280;4415;42.152;24.744;2023-07-13T03:33:01;99561.97;;;25.95;nan
8758;BME280;4415;42.152;24.744;2023-07-13T03:35:27;99577.84;;;26.12;nan
8758;BME280;4415;42.152;24.744;2023-07-13T03:40:17;99581.13;;;26.92;nan
8758;BME280;4415;42.152;24.744;2023-07-13T03:47:33;99578.34;;;28.28;nan
8758;BME280;4415;42.152;24.744;2023-07-13T03:52:24;99566.63;;;29.06;nan
8758;BME280;4415;42.152;24.744;2023-07-13T03:54:49;99584.97;;;29.74;nan
8758;BME280;4415;42.152;24.744;2023-07-13T03:59:40;99578.69;;;30.27;nan
8758;BME280;4415;42.152;24.744;2023-07-13T04:04:31;99603.50;;;31.64;nan
8758;BME280;4415;42.152;24.744;2023-07-13T04:06:59;99602.97;;;31.89;nan
8758;BME280;4415;42.152;24.744;2023-07-13T04:09:25;99592.63;;;31.50;nan
8758;BME280;4415;42.152;24.744;2023-07-13T04:19:08;99605.81;;;32.77;nan
8758;BME280;4415;42.152;24.744;2023-07-13T04:21:35;99604.69;;;32.90;nan
8758;BME280;4415;42.152;24.744;2023-07-13T04:24:01;99608.47;;;33.00;nan
8758;BME280;4415;42.152;24.744;2023-07-13T04:26:28;99616.03;;;33.77;nan
8758;BME280;4415;42.152;24.744;2023-07-13T04:28:54;99619.63;;;34.44;nan
8758;BME280;4415;42.152;24.744;2023-07-13T04:31:20;99607.63;;;34.68;nan
8758;BME280;4415;42.152;24.744;2023-07-13T04:33:46;99604.63;;;35.57;nan
8758;BME280;4415;42.152;24.744;2023-07-13T04:36:12;99600.13;;;35.25;nan
8758;BME280;4415;42.152;24.744;2023-07-13T04:41:06;99609.16;;;36.28;nan
8758;BME280;4415;42.152;24.744;2023-07-13T04:43:32;99605.19;;;36.47;nan
8758;BME280;4415;42.152;24.744;2023-07-13T04:46:04;99624.66;;;36.64;nan
8758;BME280;4415;42.152;24.744;2023-07-13T04:48:30;99608.69;;;36.61;nan
8758;BME280;4415;42.152;24.744;2023-07-13T04:50:56;99622.81;;;36.70;nan
8758;BME280;4415;42.152;24.744;2023-07-13T04:53:23;99616.03;;;37.16;nan
8758;BME280;4415;42.152;24.744;2023-07-13T04:55:48;99604.63;;;37.74;nan
8758;BME280;4415;42.152;24.744;2023-07-13T04:58:13;99624.69;;;37.94;nan
8758;BME280;4415;42.152;24.744;2023-07-13T05:00:39;99612.19;;;37.41;nan
8758;BME280;4415;42.152;24.744;2023-07-13T05:03:04;99623.91;;;37.94;nan
8758;BME280;4415;42.152;24.744;2023-07-13T05:05:31;99624.81;;;38.09;nan
8758;BME280;4415;42.152;24.744;2023-07-13T05:07:56;99625.00;;;37.51;nan
8758;BME280;4415;42.152;24.744;2023-07-13T05:10:22;99621.84;;;37.13;nan
8758;BME280;4415;42.152;24.744;2023-07-13T05:12:48;99613.47;;;39.25;nan
8758;BME280;4415;42.152;24.744;2023-07-13T05:15:14;99623.44;;;39.35;nan
8758;BME280;4415;42.152;24.744;2023-07-13T05:17:39;99629.25;;;38.85;nan
8758;BME280;4415;42.152;24.744;2023-07-13T05:20:06;99625.94;;;38.86;nan
8758;BME280;4415;42.152;24.744;2023-07-13T05:22:32;99622.09;;;39.46;nan
8758;BME280;4415;42.152;24.744;2023-07-13T05:24:57;99544.19;;;39.30;nan
8758;BME280;4415;42.152;24.744;2023-07-13T05:27:23;99627.44;;;39.82;nan
8758;BME280;4415;42.152;24.744;2023-07-13T05:29:49;99624.84;;;41.41;nan
8758;BME280;4415;42.152;24.744;2023-07-13T05:32:14;99625.66;;;41.93;nan
8758;BME280;4415;42.152;24.744;2023-07-13T05:34:40;99630.75;;;41.63;nan
8758;BME280;4415;42.152;24.744;2023-07-13T05:37:05;99625.72;;;41.53;nan
8758;BME280;4415;42.152;24.744;2023-07-13T05:41:56;99621.81;;;43.38;nan
8758;BME280;4415;42.152;24.744;2023-07-13T05:44:21;99628.06;;;42.94;nan
8758;BME280;4415;42.152;24.744;2023-07-13T05:46:47;99626.16;;;42.85;nan
8758;BME280;4415;42.152;24.744;2023-07-13T05:49:12;99622.16;;;42.61;nan
8758;BME280;4415;42.152;24.744;2023-07-13T05:51:38;99603.75;;;42.93;nan
8758;BME280;4415;42.152;24.744;2023-07-13T05:54:03;99623.00;;;43.96;nan
8758;BME280;4415;42.152;24.744;2023-07-13T05:56:29;99623.50;;;43.72;nan
8758;BME280;4415;42.152;24.744;2023-07-13T05:58:56;99612.16;;;44.17;nan
8758;BME280;4415;42.152;24.744;2023-07-13T06:03:49;99623.03;;;44.35;nan
8758;BME280;4415;42.152;24.744;2023-07-13T06:06:15;99629.97;;;43.73;nan
8758;BME280;4415;42.152;24.744;2023-07-13T06:08:41;99622.22;;;44.90;nan
8758;BME280;4415;42.152;24.744;2023-07-13T06:13:37;99616.59;;;45.42;nan
8758;BME280;4415;42.152;24.744;2023-07-13T06:16:03;99629.59;;;46.19;nan
8758;BME280;4415;42.152;24.744;2023-07-13T06:18:36;99632.13;;;45.41;nan
8758;BME280;4415;42.152;24.744;2023-07-13T06:21:14;99623.00;;;45.94;nan
8758;BME280;4415;42.152;24.744;2023-07-13T06:23:41;99623.75;;;46.06;nan
8758;BME280;4415;42.152;24.744;2023-07-13T06:26:07;99619.88;;;44.77;nan
8758;BME280;4415;42.152;24.744;2023-07-13T06:28:34;99613.25;;;47.40;nan
8758;BME280;4415;42.152;24.744;2023-07-13T06:30:59;99610.91;;;48.85;nan
8758;BME280;4415;42.152;24.744;2023-07-13T06:33:25;99614.84;;;48.42;nan
8758;BME280;4415;42.152;24.744;2023-07-13T06:35:51;99630.88;;;49.43;nan
8758;BME280;4415;42.152;24.744;2023-07-13T06:38:17;99624.59;;;49.57;nan
8758;BME280;4415;42.152;24.744;2023-07-13T06:40:43;99616.88;;;48.74;nan
8758;BME280;4415;42.152;24.744;2023-07-13T06:43:09;99620.09;;;47.75;nan
8758;BME280;4415;42.152;24.744;2023-07-13T06:45:44;99602.22;;;47.07;nan
8758;BME280;4415;42.152;24.744;2023-07-13T06:48:16;99591.53;;;48.91;nan
8758;BME280;4415;42.152;24.744;2023-07-13T06:50:42;99617.88;;;48.18;nan
8758;BME280;4415;42.152;24.744;2023-07-13T06:53:09;99607.69;;;49.88;nan
8758;BME280;4415;42.152;24.744;2023-07-13T06:55:35;99593.88;;;50.76;nan
8758;BME280;4415;42.152;24.744;2023-07-13T06:58:00;99606.13;;;51.33;nan
8758;BME280;4415;42.152;24.744;2023-07-13T07:00:26;99602.59;;;51.20;nan
8758;BME280;4415;42.152;24.744;2023-07-13T07:02:51;99609.03;;;51.99;nan
8758;BME280;4415;42.152;24.744;2023-07-13T07:05:17;99603.75;;;51.24;nan
8758;BME280;4415;42.152;24.744;2023-07-13T07:07:42;99619.03;;;52.14;nan
8758;BME280;4415;42.152;24.744;2023-07-13T07:10:08;99624.22;;;51.41;nan
8758;BME280;4415;42.152;24.744;2023-07-13T07:12:33;99615.91;;;50.46;nan
8758;BME280;4415;42.152;24.744;2023-07-13T07:14:59;99613.44;;;50.70;nan
8758;BME280;4415;42.152;24.744;2023-07-13T07:17:24;99603.44;;;50.22;nan
8758;BME280;4415;42.152;24.744;2023-07-13T07:19:52;99566.50;;;49.38;nan
8758;BME280;4415;42.152;24.744;2023-07-13T07:22:20;99619.91;;;47.86;nan
8758;BME280;4415;42.152;24.744;2023-07-13T07:24:46;99602.88;;;48.57;nan
8758;BME280;4415;42.152;24.744;2023-07-13T07:27:11;99587.00;;;50.10;nan
8758;BME280;4415;42.152;24.744;2023-07-13T07:29:37;99602.44;;;50.41;nan
8758;BME280;4415;42.152;24.744;2023-07-13T07:32:02;99599.34;;;49.03;nan
8758;BME280;4415;42.152;24.744;2023-07-13T07:34:28;99610.31;;;48.47;nan
8758;BME280;4415;42.152;24.744;2023-07-13T07:36:53;99609.72;;;47.53;nan
8758;BME280;4415;42.152;24.744;2023-07-13T07:39:19;99610.38;;;48.28;nan
8758;BME280;4415;42.152;24.744;2023-07-13T07:41:44;99606.81;;;48.09;nan
8758;BME280;4415;42.152;24.744;2023-07-13T07:44:10;99608.91;;;47.15;nan
8758;BME280;4415;42.152;24.744;2023-07-13T07:46:35;99606.56;;;48.07;nan
8758;BME280;4415;42.152;24.744;2023-07-13T07:49:01;99604.00;;;47.53;nan
8758;BME280;4415;42.152;24.744;2023-07-13T07:51:28;99582.09;;;46.46;nan
8758;BME280;4415;42.152;24.744;2023-07-13T07:53:53;99602.91;;;47.37;nan
8758;BME280;4415;42.152;24.744;2023-07-13T07:56:19;99597.75;;;47.12;nan
8758;BME280;4415;42.152;24.744;2023-07-13T07:58:44;99680.91;;;45.95;nan
8758;BME280;4415;42.152;24.744;2023-07-13T08:01:10;99604.81;;;46.86;nan
8758;BME280;4415;42.152;24.744;2023-07-13T08:03:35;99594.53;;;47.95;nan
8758;BME280;4415;42.152;24.744;2023-07-13T08:06:01;99592.97;;;47.20;nan
8758;BME280;4415;42.152;24.744;2023-07-13T08:10:52;99593.69;;;46.83;nan
8758;BME280;4415;42.152;24.744;2023-07-13T08:13:18;99578.75;;;47.33;nan
8758;BME280;4415;42.152;24.744;2023-07-13T08:15:43;99589.19;;;48.18;nan
8758;BME280;4415;42.152;24.744;2023-07-13T08:18:09;99579.66;;;48.42;nan
8758;BME280;4415;42.152;24.744;2023-07-13T08:20:40;99574.25;;;47.00;nan
8758;BME280;4415;42.152;24.744;2023-07-13T08:23:07;99576.91;;;48.04;nan
8758;BME280;4415;42.152;24.744;2023-07-13T08:25:34;99582.63;;;47.35;nan
8758;BME280;4415;42.152;24.744;2023-07-13T08:28:00;99572.31;;;46.36;nan
8758;BME280;4415;42.152;24.744;2023-07-13T08:30:25;99567.63;;;48.30;nan
8758;BME280;4415;42.152;24.744;2023-07-13T08:32:51;99573.47;;;47.93;nan
8758;BME280;4415;42.152;24.744;2023-07-13T08:35:17;99571.94;;;47.36;nan
8758;BME280;4415;42.152;24.744;2023-07-13T08:37:42;99621.84;;;45.27;nan
8758;BME280;4415;42.152;24.744;2023-07-13T08:40:09;99573.34;;;47.11;nan
8758;BME280;4415;42.152;24.744;2023-07-13T08:42:50;99552.72;;;47.87;nan
8758;BME280;4415;42.152;24.744;2023-07-13T08:47:53;99540.25;;;48.16;nan
8758;BME280;4415;42.152;24.744;2023-07-13T08:50:25;99554.53;;;48.03;nan
8758;BME280;4415;42.152;24.744;2023-07-13T08:52:55;99535.91;;;47.27;nan
8758;BME280;4415;42.152;24.744;2023-07-13T08:55:27;99548.28;;;48.63;nan
8758;BME280;4415;42.152;24.744;2023-07-13T08:58:01;99550.75;;;47.26;nan
8758;BME280;4415;42.152;24.744;2023-07-13T09:00:36;99542.28;;;48.47;nan
8758;BME280;4415;42.152;24.744;2023-07-13T09:03:05;99541.63;;;48.81;nan
8758;BME280;4415;42.152;24.744;2023-07-13T09:05:41;99544.78;;;49.16;nan
8758;BME280;4415;42.152;24.744;2023-07-13T09:11:00;99536.06;;;47.54;nan
8758;BME280;4415;42.152;24.744;2023-07-13T09:13:37;99532.25;;;48.41;nan
8758;BME280;4415;42.152;24.744;2023-07-13T09:16:05;99527.63;;;48.64;nan
8758;BME280;4415;42.152;24.744;2023-07-13T09:18:34;99523.03;;;49.55;nan
8758;BME280;4415;42.152;24.744;2023-07-13T09:21:09;99500.66;;;49.06;nan
8758;BME280;4415;42.152;24.744;2023-07-13T09:23:36;99508.63;;;49.00;nan
8758;BME280;4415;42.152;24.744;2023-07-13T09:28:40;99513.25;;;49.03;nan
8758;BME280;4415;42.152;24.744;2023-07-13T09:31:16;99512.94;;;48.28;nan
8758;BME280;4415;42.152;24.744;2023-07-13T09:33:43;99495.63;;;48.99;nan
8758;BME280;4415;42.152;24.744;2023-07-13T09:36:30;99484.41;;;48.62;nan
8758;BME280;4415;42.152;24.744;2023-07-13T09:42:05;99489.03;;;48.91;nan
8758;BME280;4415;42.152;24.744;2023-07-13T09:44:37;99487.09;;;48.15;nan
8758;BME280;4415;42.152;24.744;2023-07-13T09:47:12;99468.44;;;47.51;nan
8758;BME280;4415;42.152;24.744;2023-07-13T09:49:40;99476.22;;;47.18;nan
8758;BME280;4415;42.152;24.744;2023-07-13T09:52:10;99473.66;;;47.15;nan
8758;BME280;4415;42.152;24.744;2023-07-13T09:54:36;99459.91;;;47.64;nan
8758;BME280;4415;42.152;24.744;2023-07-13T09:57:08;99419.97;;;46.22;nan
8758;BME280;4415;42.152;24.744;2023-07-13T09:59:43;99460.22;;;46.67;nan
8758;BME280;4415;42.152;24.744;2023-07-13T10:02:43;99455.56;;;48.02;nan
8758;BME280;4415;42.152;24.744;2023-07-13T10:05:14;99446.03;;;48.52;nan
8758;BME280;4415;42.152;24.744;2023-07-13T10:07:43;99446.88;;;47.63;nan
8758;BME280;4415;42.152;24.744;2023-07-13T10:10:19;99437.97;;;47.34;nan
8758;BME280;4415;42.152;24.744;2023-07-13T10:12:46;99435.78;;;46.66;nan
8758;BME280;4415;42.152;24.744;2023-07-13T10:15:21;99439.53;;;47.17;nan
8758;BME280;4415;42.152;24.744;2023-07-13T10:17:50;99433.19;;;47.87;nan
8758;BME280;4415;42.152;24.744;2023-07-13T10:20:16;99429.19;;;46.95;nan
8758;BME280;4415;42.152;24.744;2023-07-13T10:22:46;99440.31;;;47.17;nan
8758;BME280;4415;42.152;24.744;2023-07-13T10:25:17;99431.50;;;47.79;nan
8758;BME280;4415;42.152;24.744;2023-07-13T10:27:43;99440.16;;;47.10;nan
8758;BME280;4415;42.152;24.744;2023-07-13T10:30:19;99431.69;;;47.68;nan
8758;BME280;4415;42.152;24.744;2023-07-13T10:32:46;99443.38;;;48.01;nan
8758;BME280;4415;42.152;24.744;2023-07-13T10:35:14;99414.59;;;47.49;nan
8758;BME280;4415;42.152;24.744;2023-07-13T10:38:05;99421.47;;;47.40;nan
8758;BME280;4415;42.152;24.744;2023-07-13T10:40:37;99410.84;;;47.22;nan
8758;BME280;4415;42.152;24.744;2023-07-13T10:43:09;99402.75;;;46.70;nan
8758;BME280;4415;42.152;24.744;2023-07-13T10:45:39;99400.06;;;47.47;nan
8758;BME280;4415;42.152;24.744;2023-07-13T10:48:06;99390.97;;;47.75;nan
8758;BME280;4415;42.152;24.744;2023-07-13T10:50:37;99390.84;;;46.85;nan
8758;BME280;4415;42.152;24.744;2023-07-13T10:53:28;99386.34;;;47.08;nan
8758;BME280;4415;42.152;24.744;2023-07-13T10:55:58;99406.47;;;46.84;nan
8758;BME280;4415;42.152;24.744;2023-07-13T10:58:29;99405.69;;;46.65;nan
8758;BME280;4415;42.152;24.744;2023-07-13T11:03:51;99376.56;;;46.23;nan
8758;BME280;4415;42.152;24.744;2023-07-13T11:11:36;99368.72;;;46.67;nan
8758;BME280;4415;42.152;24.744;2023-07-13T11:14:05;99389.59;;;46.62;nan
8758;BME280;4415;42.152;24.744;2023-07-13T11:16:49;99383.03;;;46.24;nan
8758;BME280;4415;42.152;24.744;2023-07-13T11:30:09;99355.16;;;46.54;nan
8758;BME280;4415;42.152;24.744;2023-07-13T11:35:13;99365.97;;;45.94;nan
8758;BME280;4415;42.152;24.744;2023-07-13T11:37:41;99367.97;;;45.81;nan
8758;BME280;4415;42.152;24.744;2023-07-13T11:40:13;99360.56;;;45.01;nan
8758;BME280;4415;42.152;24.744;2023-07-13T11:42:39;99349.28;;;45.20;nan
8758;BME280;4415;42.152;24.744;2023-07-13T11:45:19;99342.97;;;45.57;nan
8758;BME280;4415;42.152;24.744;2023-07-13T11:47:45;99361.13;;;45.35;nan
8758;BME280;4415;42.152;24.744;2023-07-13T11:50:22;99348.59;;;45.68;nan
8758;BME280;4415;42.152;24.744;2023-07-13T11:52:49;99352.97;;;45.45;nan
8758;BME280;4415;42.152;24.744;2023-07-13T11:55:18;99353.34;;;45.60;nan
8758;BME280;4415;42.152;24.744;2023-07-13T11:58:04;99343.63;;;44.79;nan
8758;BME280;4415;42.152;24.744;2023-07-13T12:00:32;99350.50;;;43.80;nan
8758;BME280;4415;42.152;24.744;2023-07-13T12:03:00;99326.94;;;44.42;nan
8758;BME280;4415;42.152;24.744;2023-07-13T12:05:26;99325.69;;;44.90;nan
8758;BME280;4415;42.152;24.744;2023-07-13T12:07:52;99326.19;;;44.83;nan
8758;BME280;4415;42.152;24.744;2023-07-13T12:10:29;99323.91;;;44.81;nan
8758;BME280;4415;42.152;24.744;2023-07-13T12:12:58;99320.22;;;44.86;nan
8758;BME280;4415;42.152;24.744;2023-07-13T12:15:38;99322.78;;;44.95;nan
8758;BME280;4415;42.152;24.744;2023-07-13T12:18:21;99303.13;;;44.86;nan
8758;BME280;4415;42.152;24.744;2023-07-13T12:20:48;99304.72;;;43.61;nan
8758;BME280;4415;42.152;24.744;2023-07-13T12:23:31;99299.94;;;44.02;nan
8758;BME280;4415;42.152;24.744;2023-07-13T12:25:58;99294.72;;;44.18;nan
8758;BME280;4415;42.152;24.744;2023-07-13T12:30:58;99303.34;;;44.53;nan
8758;BME280;4415;42.152;24.744;2023-07-13T12:33:28;99289.41;;;44.44;nan
8758;BME280;4415;42.152;24.744;2023-07-13T12:35:53;99300.47;;;43.95;nan
8758;BME280;4415;42.152;24.744;2023-07-13T12:38:19;99280.69;;;43.46;nan
8758;BME280;4415;42.152;24.744;2023-07-13T12:40:49;99282.13;;;43.91;nan
8758;BME280;4415;42.152;24.744;2023-07-13T12:43:16;99281.72;;;43.48;nan
8758;BME280;4415;42.152;24.744;2023-07-13T12:46:21;99286.13;;;43.05;nan
8758;BME280;4415;42.152;24.744;2023-07-13T12:48:53;99267.00;;;42.88;nan
8758;BME280;4415;42.152;24.744;2023-07-13T12:51:22;99268.28;;;42.93;nan
8758;BME280;4415;42.152;24.744;2023-07-13T12:53:55;99277.31;;;42.80;nan
8758;BME280;4415;42.152;24.744;2023-07-13T12:56:24;99253.81;;;42.58;nan
8758;BME280;4415;42.152;24.744;2023-07-13T12:58:58;99274.50;;;42.97;nan
8758;BME280;4415;42.152;24.744;2023-07-13T13:01:30;99258.22;;;43.09;nan
8758;BME280;4415;42.152;24.744;2023-07-13T13:04:01;99271.78;;;42.33;nan
8758;BME280;4415;42.152;24.744;2023-07-13T13:06:29;99264.88;;;42.50;nan
8758;BME280;4415;42.152;24.744;2023-07-13T13:08:59;99264.41;;;42.74;nan
8758;BME280;4415;42.152;24.744;2023-07-13T13:11:26;99254.06;;;42.76;nan
8758;BME280;4415;42.152;24.744;2023-07-13T13:13:52;99252.81;;;42.94;nan
8758;BME280;4415;42.152;24.744;2023-07-13T13:16:21;99249.16;;;43.27;nan
8758;BME280;4415;42.152;24.744;2023-07-13T13:18:48;99265.22;;;43.35;nan
8758;BME280;4415;42.152;24.744;2023-07-13T13:21:15;99261.06;;;42.92;nan
8758;BME280;4415;42.152;24.744;2023-07-13T13:23:41;99239.34;;;43.17;nan
8758;BME280;4415;42.152;24.744;2023-07-13T13:26:14;99240.91;;;42.90;nan
8758;BME280;4415;42.152;24.744;2023-07-13T13:28:43;99197.47;;;42.40;nan
8758;BME280;4415;42.152;24.744;2023-07-13T13:31:10;99240.31;;;41.71;nan
8758;BME280;4415;42.152;24.744;2023-07-13T13:33:43;99236.69;;;41.29;nan
8758;BME280;4415;42.152;24.744;2023-07-13T13:36:19;99230.19;;;41.17;nan
8758;BME280;4415;42.152;24.744;2023-07-13T13:38:45;99219.41;;;40.59;nan
8758;BME280;4415;42.152;24.744;2023-07-13T13:41:12;99240.97;;;40.50;nan
8758;BME280;4415;42.152;24.744;2023-07-13T13:43:39;99239.81;;;40.42;nan
8758;BME280;4415;42.152;24.744;2023-07-13T13:46:13;99238.59;;;40.23;nan
8758;BME280;4415;42.152;24.744;2023-07-13T13:48:39;99230.81;;;40.18;nan
8758;BME280;4415;42.152;24.744;2023-07-13T13:53:37;99204.50;;;40.12;nan
8758;BME280;4415;42.152;24.744;2023-07-13T13:56:04;99232.09;;;39.97;nan
8758;BME280;4415;42.152;24.744;2023-07-13T13:58:29;99226.09;;;39.89;nan
8758;BME280;4415;42.152;24.744;2023-07-13T14:00:56;99222.47;;;39.89;nan
8758;BME280;4415;42.152;24.744;2023-07-13T14:03:21;99237.25;;;39.78;nan
8758;BME280;4415;42.152;24.744;2023-07-13T14:05:48;99234.47;;;39.44;nan
8758;BME280;4415;42.152;24.744;2023-07-13T14:08:16;99197.81;;;39.34;nan
8758;BME280;4415;42.152;24.744;2023-07-13T14:13:21;99206.03;;;39.18;nan
8758;BME280;4415;42.152;24.744;2023-07-13T14:15:48;99227.44;;;39.39;nan
8758;BME280;4415;42.152;24.744;2023-07-13T14:18:14;99219.78;;;39.60;nan
8758;BME280;4415;42.152;24.744;2023-07-13T14:23:13;99206.50;;;39.66;nan
8758;BME280;4415;42.152;24.744;2023-07-13T14:25:39;99192.22;;;39.75;nan
8758;BME280;4415;42.152;24.744;2023-07-13T14:30:40;99189.56;;;39.51;nan
8758;BME280;4415;42.152;24.744;2023-07-13T14:33:10;99207.50;;;39.63;nan
8758;BME280;4415;42.152;24.744;2023-07-13T14:35:36;99213.59;;;39.41;nan
8758;BME280;4415;42.152;24.744;2023-07-13T14:38:03;99212.81;;;39.41;nan
8758;BME280;4415;42.152;24.744;2023-07-13T14:40:30;99150.03;;;39.16;nan
8758;BME280;4415;42.152;24.744;2023-07-13T14:42:56;99183.13;;;38.96;nan
8758;BME280;4415;42.152;24.744;2023-07-13T14:45:22;99134.38;;;39.01;nan
8758;BME280;4415;42.152;24.744;2023-07-13T14:50:23;99201.41;;;39.00;nan
8758;BME280;4415;42.152;24.744;2023-07-13T14:52:49;99180.00;;;38.94;nan
8758;BME280;4415;42.152;24.744;2023-07-13T14:55:19;99188.94;;;39.07;nan
8758;BME280;4415;42.152;24.744;2023-07-13T14:57:45;99180.94;;;39.20;nan
8758;BME280;4415;42.152;24.744;2023-07-13T15:00:19;99193.38;;;39.13;nan
8758;BME280;4415;42.152;24.744;2023-07-13T15:02:51;99183.25;;;39.21;nan
8758;BME280;4415;42.152;24.744;2023-07-13T15:05:21;99167.09;;;39.22;nan
8758;BME280;4415;42.152;24.744;2023-07-13T15:07:48;99169.41;;;39.23;nan
8758;BME280;4415;42.152;24.744;2023-07-13T15:10:23;99190.47;;;39.22;nan
8758;BME280;4415;42.152;24.744;2023-07-13T15:12:51;99175.88;;;39.09;nan
8758;BME280;4415;42.152;24.744;2023-07-13T15:15:17;99187.53;;;39.17;nan
8758;BME280;4415;42.152;24.744;2023-07-13T15:17:45;99182.88;;;39.14;nan
8758;BME280;4415;42.152;24.744;2023-07-13T15:20:29;99166.78;;;38.85;nan
8758;BME280;4415;42.152;24.744;2023-07-13T15:22:56;99174.31;;;39.08;nan
8758;BME280;4415;42.152;24.744;2023-07-13T15:25:27;99164.59;;;38.95;nan
8758;BME280;4415;42.152;24.744;2023-07-13T15:27:54;99172.34;;;39.14;nan
8758;BME280;4415;42.152;24.744;2023-07-13T15:30:21;99182.47;;;39.21;nan
8758;BME280;4415;42.152;24.744;2023-07-13T15:32:47;99176.84;;;39.06;nan
8758;BME280;4415;42.152;24.744;2023-07-13T15:35:14;99148.38;;;39.24;nan
8758;BME280;4415;42.152;24.744;2023-07-13T15:37:41;99185.03;;;39.19;nan
8758;BME280;4415;42.152;24.744;2023-07-13T15:40:07;99185.03;;;39.19;nan
8758;BME280;4415;42.152;24.744;2023-07-13T15:42:33;99180.75;;;39.09;nan
8758;BME280;4415;42.152;24.744;2023-07-13T15:45:01;99181.91;;;39.02;nan
8758;BME280;4415;42.152;24.744;2023-07-13T15:49:52;99167.94;;;38.93;nan
8758;BME280;4415;42.152;24.744;2023-07-13T15:52:21;99182.66;;;39.17;nan
8758;BME280;4415;42.152;24.744;2023-07-13T15:57:13;99177.03;;;39.17;nan
8758;BME280;4415;42.152;24.744;2023-07-13T16:02:19;99190.47;;;39.08;nan
8758;BME280;4415;42.152;24.744;2023-07-13T16:04:46;99188.41;;;38.88;nan
8758;BME280;4415;42.152;24.744;2023-07-13T16:07:15;99182.91;;;38.99;nan
8758;BME280;4415;42.152;24.744;2023-07-13T16:12:14;99188.19;;;38.92;nan
8758;BME280;4415;42.152;24.744;2023-07-13T16:14:41;99190.91;;;39.01;nan